createdAt,value
2024-03-12T00:01:12.809Z,16.15
2024-03-12T00:03:45.678Z,17.98
2024-03-12T00:06:21.617Z,16.65
2024-03-12T00:08:54.206Z,17.27
2024-03-12T00:11:27.548Z,17.42
2024-03-12T00:13:59.660Z,17.30
2024-03-12T00:16:35.196Z,18.75
2024-03-12T00:19:11.188Z,16.23
2024-03-12T00:21:47.330Z,16.70
2024-03-12T00:24:19.886Z,16.27
2024-03-12T00:26:52.225Z,15.55
2024-03-12T00:29:25.083Z,19.38
2024-03-12T00:31:57.543Z,16.85
2024-03-12T00:34:31.725Z,17.05
2024-03-12T00:37:06.632Z,15.90
2024-03-12T00:39:39.548Z,17.77
2024-03-12T00:42:12.117Z,17.55
2024-03-12T00:44:45.136Z,15.98
2024-03-12T00:47:17.714Z,18.05
2024-03-12T00:49:49.921Z,15.30
2024-03-12T00:52:25.295Z,16.02
2024-03-12T00:54:57.670Z,16.77
2024-03-12T00:57:30.057Z,18.08
2024-03-12T01:00:02.006Z,17.83
2024-03-12T01:02:34.664Z,16.80
2024-03-12T01:05:08.930Z,17.45
2024-03-12T01:07:43.485Z,16.50
2024-03-12T01:10:15.233Z,14.75
2024-03-12T01:12:48.086Z,17.15
2024-03-12T01:15:20.628Z,16.48
2024-03-12T01:17:52.978Z,16.05
2024-03-12T01:20:26.792Z,18.58
2024-03-12T01:23:03.001Z,16.50
2024-03-12T01:25:38.541Z,17.00
2024-03-12T01:28:12.204Z,16.33
2024-03-12T01:30:44.406Z,17.50
2024-03-12T01:33:16.586Z,17.73
2024-03-12T01:35:49.343Z,16.75
2024-03-12T01:38:24.129Z,18.65
2024-03-12T01:40:56.252Z,18.33
2024-03-12T01:43:29.626Z,16.77
2024-03-12T01:46:04.364Z,16.75
2024-03-12T01:48:36.716Z,15.90
2024-03-12T01:51:10.004Z,20.30
2024-03-12T01:53:47.421Z,16.25
2024-03-12T01:56:19.484Z,18.52
2024-03-12T01:58:52.307Z,16.20
2024-03-12T02:01:24.808Z,17.52
2024-03-12T02:03:58.096Z,19.48
2024-03-12T02:06:30.426Z,16.17
2024-03-12T02:09:07.996Z,18.13
2024-03-12T02:11:42.016Z,18.73
2024-03-12T02:14:14.181Z,18.38
2024-03-12T02:16:47.775Z,16.92
2024-03-12T02:19:20.685Z,19.52
2024-03-12T02:21:53.390Z,19.80
2024-03-12T02:24:28.533Z,18.13
2024-03-12T02:27:00.784Z,18.25
2024-03-12T02:29:33.504Z,18.23
2024-03-12T02:32:06.313Z,16.92
2024-03-12T02:34:38.693Z,19.23
2024-03-12T02:37:11.498Z,16.05
2024-03-12T02:39:46.576Z,16.65
2024-03-12T02:42:16.960Z,18.85
2024-03-12T02:44:48.782Z,19.35
2024-03-12T02:47:22.442Z,19.48
2024-03-12T02:49:55.964Z,17.73
2024-03-12T02:52:28.775Z,19.45
2024-03-12T02:55:05.088Z,18.65
2024-03-12T02:57:37.033Z,17.92
2024-03-12T03:00:14.905Z,19.10
2024-03-12T03:02:48.549Z,16.90
2024-03-12T03:05:20.832Z,16.80
2024-03-12T03:07:53.083Z,17.40
2024-03-12T03:10:28.056Z,18.83
2024-03-12T03:13:01.440Z,19.02
2024-03-12T03:15:33.903Z,20.33
2024-03-12T03:18:07.617Z,17.70
2024-03-12T03:20:40.617Z,20.17
2024-03-12T03:23:12.634Z,19.60
2024-03-12T03:25:48.121Z,20.35
2024-03-12T03:30:55.219Z,17.92
2024-03-12T03:33:27.058Z,17.90
2024-03-12T03:35:59.611Z,18.50
2024-03-12T03:38:31.797Z,19.80
2024-03-12T03:41:07.470Z,18.25
2024-03-12T03:43:39.493Z,18.45
2024-03-12T03:46:12.337Z,18.75
2024-03-12T03:48:46.048Z,16.83
2024-03-12T03:51:18.934Z,19.77
2024-03-12T03:53:51.694Z,19.83
2024-03-12T03:56:26.926Z,17.08
2024-03-12T03:58:59.983Z,17.75
2024-03-12T04:01:33.237Z,17.92
2024-03-12T04:04:12.756Z,20.02
2024-03-12T04:06:47.601Z,17.95
2024-03-12T04:09:20.143Z,19.02
2024-03-12T04:11:55.422Z,18.23
2024-03-12T04:14:28.265Z,19.88
2024-03-12T04:16:59.283Z,18.05
2024-03-12T04:19:33.367Z,17.08
2024-03-12T04:22:05.949Z,18.65
2024-03-12T04:24:38.426Z,20.38
2024-03-12T04:27:16.276Z,19.67
2024-03-12T04:29:47.148Z,19.50
2024-03-12T04:32:17.992Z,19.60
2024-03-12T04:34:48.740Z,19.25
2024-03-12T04:37:19.509Z,20.50
2024-03-12T04:39:50.382Z,19.42
2024-03-12T04:42:25.659Z,19.48
2024-03-12T04:44:57.512Z,21.42
2024-03-12T04:47:28.312Z,20.38
2024-03-12T04:49:59.127Z,17.88
2024-03-12T04:52:29.873Z,19.35
2024-03-12T04:55:01.113Z,18.20
2024-03-12T04:57:36.933Z,16.35
2024-03-12T05:00:16.211Z,23.90
2024-03-12T05:02:48.264Z,19.65
2024-03-12T05:05:20.677Z,16.50
2024-03-12T05:07:51.824Z,19.67
2024-03-12T05:10:23.911Z,18.98
2024-03-12T05:12:57.836Z,20.15
2024-03-12T05:15:28.639Z,18.83
2024-03-12T05:17:59.538Z,18.98
2024-03-12T05:20:30.977Z,19.52
2024-03-12T05:23:03.573Z,23.95
2024-03-12T05:25:43.776Z,20.70
2024-03-12T05:28:17.306Z,19.27
2024-03-12T05:30:50.067Z,22.10
2024-03-12T05:33:27.951Z,20.67
2024-03-12T05:35:58.752Z,19.60
2024-03-12T05:38:37.738Z,22.40
2024-03-12T05:41:27.012Z,19.60
2024-03-12T05:44:21.909Z,20.02
2024-03-12T05:47:05.086Z,20.10
2024-03-12T05:49:36.276Z,20.52
2024-03-12T05:52:07.500Z,18.60
2024-03-12T05:54:38.352Z,21.00
2024-03-12T05:57:09.977Z,20.52
2024-03-12T05:59:43.572Z,18.50
2024-03-12T06:02:14.548Z,21.23
2024-03-12T06:04:45.688Z,20.08
2024-03-12T06:07:18.175Z,22.05
2024-03-12T06:09:50.723Z,18.90
2024-03-12T06:12:21.734Z,20.42
2024-03-12T06:14:55.105Z,20.63
2024-03-12T06:17:25.903Z,20.65
2024-03-12T06:19:56.687Z,21.98
2024-03-12T06:22:28.141Z,20.42
2024-03-12T06:24:59.162Z,19.20
2024-03-12T06:27:30.618Z,19.42
2024-03-12T06:30:03.953Z,21.45
2024-03-12T06:32:35.331Z,20.42
2024-03-12T06:35:06.223Z,20.85
2024-03-12T06:37:37.025Z,17.85
2024-03-12T06:40:08.654Z,18.90
2024-03-12T06:42:39.435Z,20.92
2024-03-12T06:45:13.617Z,18.77
2024-03-12T06:47:44.428Z,18.17
2024-03-12T06:50:15.649Z,18.85
2024-03-12T06:52:50.334Z,17.88
2024-03-12T06:55:25.018Z,18.23
2024-03-12T06:58:01.283Z,18.67
2024-03-12T07:00:38.913Z,17.27
2024-03-12T07:03:10.819Z,20.33
2024-03-12T07:05:45.065Z,19.33
2024-03-12T07:08:18.919Z,22.05
2024-03-12T07:10:50.138Z,19.80
2024-03-12T07:13:25.006Z,19.38
2024-03-12T07:18:41.415Z,17.02
2024-03-12T07:21:12.246Z,18.08
2024-03-12T07:23:43.004Z,19.35
2024-03-12T07:26:13.765Z,17.48
2024-03-12T07:28:45.028Z,21.02
2024-03-12T07:31:18.525Z,20.17
2024-03-12T07:33:49.836Z,18.92
2024-03-12T07:36:22.253Z,19.77
2024-03-12T07:38:54.013Z,20.35
2024-03-12T07:41:24.816Z,19.77
2024-03-12T07:43:56.201Z,18.10
2024-03-12T07:46:29.984Z,19.42
2024-03-12T07:49:00.786Z,21.40
2024-03-12T07:51:31.803Z,18.85
2024-03-12T07:54:07.778Z,19.92
2024-03-12T07:56:38.750Z,19.05
2024-03-12T07:59:09.529Z,18.35
2024-03-12T08:01:42.935Z,19.67
2024-03-12T08:04:14.365Z,18.52
2024-03-12T08:06:45.228Z,17.98
2024-03-12T08:09:16.391Z,18.92
2024-03-12T08:11:47.899Z,16.30
2024-03-12T08:14:19.141Z,21.58
2024-03-12T08:16:52.553Z,20.23
2024-03-12T08:19:26.840Z,19.50
2024-03-12T08:21:57.726Z,21.17
2024-03-12T08:24:30.678Z,20.48
2024-03-12T08:27:01.489Z,21.70
2024-03-12T08:29:32.276Z,23.75
2024-03-12T08:32:05.692Z,20.10
2024-03-12T08:34:38.107Z,19.80
2024-03-12T08:37:10.703Z,19.30
2024-03-12T08:39:41.926Z,20.63
2024-03-12T08:42:12.735Z,19.48
2024-03-12T08:44:44.691Z,18.30
2024-03-12T08:47:15.673Z,18.58
2024-03-12T08:49:47.385Z,19.60
2024-03-12T08:52:18.273Z,18.08
2024-03-12T08:54:49.201Z,18.30
2024-03-12T08:57:20.135Z,19.75
2024-03-12T08:59:51.333Z,21.17
2024-03-12T09:02:24.855Z,20.60
2024-03-12T09:04:55.678Z,21.63
2024-03-12T09:07:26.457Z,19.30
2024-03-12T09:09:59.969Z,19.38
2024-03-12T09:12:31.263Z,19.80
2024-03-12T09:15:03.725Z,16.85
2024-03-12T09:17:37.608Z,20.38
2024-03-12T09:20:11.613Z,19.13
2024-03-12T09:22:45.802Z,17.70
2024-03-12T09:25:19.796Z,18.65
2024-03-12T09:27:51.518Z,19.40
2024-03-12T09:30:22.358Z,20.30
2024-03-12T09:32:55.727Z,20.13
2024-03-12T09:35:26.568Z,19.85
2024-03-12T09:37:58.085Z,18.58
2024-03-12T09:40:29.777Z,16.52
2024-03-12T09:43:04.945Z,18.70
2024-03-12T09:45:36.246Z,18.98
2024-03-12T09:48:10.520Z,16.85
2024-03-12T09:50:43.339Z,18.88
2024-03-12T09:53:15.961Z,18.65
2024-03-12T09:55:46.985Z,15.85
2024-03-12T09:58:17.993Z,15.32
2024-03-12T10:00:48.822Z,16.67
2024-03-12T10:03:25.842Z,16.83
2024-03-12T10:05:56.969Z,18.83
2024-03-12T10:08:33.151Z,16.88
2024-03-12T10:11:10.362Z,17.58
2024-03-12T10:13:43.171Z,16.67
2024-03-12T10:16:22.238Z,15.68
2024-03-12T10:19:10.644Z,16.85
2024-03-12T10:21:42.268Z,17.35
2024-03-12T10:24:14.787Z,18.27
2024-03-12T10:26:46.492Z,17.17
2024-03-12T10:29:19.777Z,18.75
2024-03-12T10:31:52.128Z,16.85
2024-03-12T10:34:25.579Z,16.80
2024-03-12T10:36:56.379Z,17.90
2024-03-12T10:39:34.186Z,17.67
2024-03-12T10:42:05.401Z,15.85
2024-03-12T10:44:40.298Z,16.85
2024-03-12T10:49:49.400Z,14.50
2024-03-12T10:52:21.342Z,14.40
2024-03-12T10:55:05.035Z,16.80
2024-03-12T10:57:42.013Z,14.05
2024-03-12T11:00:16.997Z,14.18
2024-03-12T11:02:48.289Z,16.20
2024-03-12T11:05:23.876Z,14.95
2024-03-12T11:07:55.473Z,15.32
2024-03-12T11:10:28.284Z,13.80
2024-03-12T11:13:03.497Z,14.52
2024-03-12T11:15:35.391Z,14.63
2024-03-12T11:18:06.800Z,14.77
2024-03-12T11:20:43.231Z,14.75
2024-03-12T11:23:15.971Z,15.07
2024-03-12T11:25:51.286Z,15.40
2024-03-12T11:28:23.870Z,14.50
2024-03-12T11:31:05.696Z,13.60
2024-03-12T11:33:51.061Z,14.77
2024-03-12T11:36:36.029Z,12.77
2024-03-12T11:39:16.911Z,13.93
2024-03-12T11:42:16.647Z,15.65
2024-03-12T11:44:49.587Z,13.73
2024-03-12T11:47:36.270Z,14.63
2024-03-12T11:50:11.873Z,13.95
2024-03-12T11:52:45.332Z,15.13
2024-03-12T11:55:36.064Z,13.75
2024-03-12T11:58:07.828Z,13.23
2024-03-12T12:00:39.744Z,14.75
2024-03-12T12:03:10.609Z,14.38
2024-03-12T12:05:42.207Z,13.50
2024-03-12T12:08:16.369Z,14.30
2024-03-12T12:10:59.758Z,15.00
2024-03-12T12:13:31.016Z,12.80
2024-03-12T12:16:02.816Z,13.25
2024-03-12T12:18:34.937Z,13.10
2024-03-12T12:21:08.123Z,14.25
2024-03-12T12:23:45.131Z,14.25
2024-03-12T12:26:20.159Z,12.55
2024-03-12T12:31:22.586Z,11.43
2024-03-12T12:33:56.918Z,13.57
2024-03-12T12:36:30.245Z,13.40
2024-03-12T12:39:05.490Z,15.20
2024-03-12T12:41:39.427Z,13.70
2024-03-12T12:44:18.360Z,13.40
2024-03-12T12:46:53.708Z,13.60
2024-03-12T12:49:26.338Z,14.05
2024-03-12T12:51:58.910Z,13.77
2024-03-12T12:54:33.661Z,15.07
2024-03-12T12:57:04.437Z,13.50
2024-03-12T12:59:38.242Z,13.38
2024-03-12T13:02:20.092Z,13.98
2024-03-12T13:04:51.045Z,14.73
2024-03-12T13:07:33.595Z,14.60
2024-03-12T13:10:18.368Z,14.75
2024-03-12T13:12:49.768Z,16.17
2024-03-12T13:15:27.314Z,15.43
2024-03-12T13:17:58.115Z,16.17
2024-03-12T13:20:29.266Z,17.92
2024-03-12T13:23:00.149Z,15.10
2024-03-12T13:25:33.517Z,15.60
2024-03-12T13:28:05.037Z,13.95
2024-03-12T13:30:35.872Z,15.65
2024-03-12T13:33:07.745Z,16.85
2024-03-12T13:35:38.551Z,18.45
2024-03-12T13:38:10.977Z,18.33
2024-03-12T13:40:44.366Z,18.17
2024-03-12T13:43:15.366Z,16.33
2024-03-12T13:45:47.789Z,15.63
2024-03-12T13:48:20.610Z,17.23
2024-03-12T13:50:51.343Z,16.25
2024-03-12T13:53:22.790Z,16.65
2024-03-12T13:55:56.107Z,17.40
2024-03-12T13:58:27.365Z,16.17
2024-03-12T14:01:00.832Z,17.88
2024-03-12T14:03:33.719Z,16.40
2024-03-12T14:06:05.071Z,17.20
2024-03-12T14:08:35.917Z,14.32
2024-03-12T14:11:09.341Z,15.68
2024-03-12T14:13:40.885Z,15.77
2024-03-12T14:16:11.705Z,15.48
2024-03-12T14:18:44.134Z,16.90
2024-03-12T14:21:15.248Z,15.38
2024-03-12T14:23:46.339Z,15.70
2024-03-12T14:26:20.241Z,15.15
2024-03-12T14:28:52.686Z,16.40
2024-03-12T14:31:23.592Z,14.95
2024-03-12T14:33:54.430Z,15.80
2024-03-12T14:36:25.787Z,16.02
2024-03-12T14:38:57.354Z,16.55
2024-03-12T14:41:31.040Z,16.55
2024-03-12T14:44:01.814Z,15.98
2024-03-12T14:46:32.719Z,15.25
2024-03-12T14:49:05.718Z,14.60
2024-03-12T14:51:36.596Z,17.10
2024-03-12T14:54:07.586Z,18.60
2024-03-12T14:56:41.869Z,16.98
2024-03-12T14:59:13.283Z,16.92
2024-03-12T15:01:45.883Z,17.33
2024-03-12T15:04:17.609Z,18.85
2024-03-12T15:06:49.543Z,18.75
2024-03-12T15:09:23.078Z,19.20
2024-03-12T15:11:58.481Z,17.52
2024-03-12T15:14:29.737Z,18.88
2024-03-12T15:17:00.936Z,18.02
2024-03-12T15:19:32.447Z,19.25
2024-03-12T15:22:06.538Z,17.23
2024-03-12T15:24:39.847Z,18.05
2024-03-12T15:27:14.391Z,18.27
2024-03-12T15:29:45.604Z,17.75
2024-03-12T15:32:17.681Z,19.35
2024-03-12T15:34:48.590Z,18.73
2024-03-12T15:37:19.809Z,17.33
2024-03-12T15:39:51.212Z,17.92
2024-03-12T15:42:24.770Z,19.50
2024-03-12T15:44:56.925Z,19.08
2024-03-12T15:47:28.238Z,17.52
2024-03-12T15:49:59.836Z,18.02
2024-03-12T15:52:30.972Z,17.45
2024-03-12T15:55:03.447Z,18.08
2024-03-12T15:57:40.020Z,19.83
2024-03-12T16:00:15.547Z,18.70
2024-03-12T16:02:48.454Z,20.40
2024-03-12T16:05:20.499Z,19.13
2024-03-12T16:07:53.113Z,18.75
2024-03-12T16:10:24.933Z,18.67
2024-03-12T16:12:59.265Z,19.52
2024-03-12T16:15:30.416Z,18.83
2024-03-12T16:18:02.229Z,18.73
2024-03-12T16:20:33.872Z,19.55
2024-03-12T16:23:05.135Z,19.27
2024-03-12T16:25:36.592Z,20.88
2024-03-12T16:28:10.959Z,20.45
2024-03-12T16:30:42.020Z,20.83
2024-03-12T16:33:13.248Z,22.13
2024-03-12T16:35:45.770Z,21.83
2024-03-12T16:38:18.321Z,19.20
2024-03-12T16:40:49.477Z,18.15
2024-03-12T16:43:23.552Z,20.58
2024-03-12T16:45:55.481Z,19.75
2024-03-12T16:48:27.935Z,21.42
2024-03-12T16:50:59.501Z,20.77
2024-03-12T16:53:32.236Z,19.95
2024-03-12T16:56:04.608Z,20.90
2024-03-12T16:58:39.641Z,19.85
2024-03-12T17:03:45.585Z,20.00
2024-03-12T17:06:21.101Z,21.15
2024-03-12T17:08:54.772Z,20.45
2024-03-12T17:11:26.459Z,21.67
2024-03-12T17:14:04.720Z,22.45
2024-03-12T17:16:37.189Z,22.38
2024-03-12T17:19:11.747Z,22.65
2024-03-12T17:21:43.842Z,20.25
2024-03-12T17:24:16.691Z,22.65
2024-03-12T17:26:50.766Z,22.15
2024-03-12T17:29:27.103Z,22.27
2024-03-12T17:31:59.719Z,22.77
2024-03-12T17:34:32.876Z,21.02
2024-03-12T17:37:08.361Z,20.98
2024-03-12T17:39:40.571Z,21.42
2024-03-12T17:42:13.199Z,21.45
2024-03-12T17:44:48.278Z,21.67
2024-03-12T17:47:22.458Z,23.23
2024-03-12T17:49:58.500Z,22.52
2024-03-12T17:52:30.910Z,22.13
2024-03-12T17:55:03.425Z,23.25
2024-03-12T17:57:37.307Z,22.33
2024-03-12T18:00:15.871Z,23.40
2024-03-12T18:02:50.935Z,23.50
2024-03-12T18:05:26.673Z,21.95
2024-03-12T18:08:03.779Z,24.13
2024-03-12T18:10:38.812Z,23.50
2024-03-12T18:13:15.983Z,24.80
2024-03-12T18:15:53.958Z,23.52
2024-03-12T18:18:27.677Z,21.83
2024-03-12T18:20:59.715Z,25.17
2024-03-12T18:23:32.767Z,23.30
2024-03-12T18:26:06.946Z,24.88
2024-03-12T18:28:39.652Z,25.70
2024-03-12T18:31:15.618Z,23.30
2024-03-12T18:33:48.553Z,23.10
2024-03-12T18:36:22.580Z,23.85
2024-03-12T18:38:56.259Z,23.10
2024-03-12T18:41:27.638Z,23.67
2024-03-12T18:43:59.296Z,22.23
2024-03-12T18:46:33.135Z,24.10
2024-03-12T18:49:05.045Z,22.85
2024-03-12T18:51:37.301Z,24.75
2024-03-12T18:54:08.991Z,22.35
2024-03-12T18:56:40.858Z,23.27
2024-03-12T18:59:13.432Z,23.83
2024-03-12T19:01:52.671Z,24.10
2024-03-12T19:04:32.262Z,26.80
2024-03-12T19:07:04.865Z,23.50
2024-03-12T19:09:36.775Z,24.33
2024-03-12T19:12:12.132Z,25.75
2024-03-12T19:14:45.427Z,24.95
2024-03-12T19:17:21.501Z,24.05
2024-03-12T19:19:54.221Z,23.10
2024-03-12T19:22:27.705Z,25.38
2024-03-12T19:24:59.273Z,25.10
2024-03-12T19:27:31.435Z,25.45
2024-03-12T19:30:07.097Z,26.55
2024-03-12T19:32:42.548Z,24.58
2024-03-12T19:35:15.570Z,24.00
2024-03-12T19:37:48.911Z,24.95
2024-03-12T19:40:23.092Z,26.48
2024-03-12T19:42:57.088Z,24.83
2024-03-12T19:45:31.570Z,25.15
2024-03-12T19:48:07.395Z,26.17
2024-03-12T19:50:39.442Z,25.70
2024-03-12T19:53:11.044Z,26.27
2024-03-12T19:55:45.065Z,25.23
2024-03-12T19:58:16.475Z,25.05
2024-03-12T20:00:51.570Z,26.67
2024-03-12T20:03:27.792Z,24.50
2024-03-12T20:05:59.717Z,24.77
2024-03-12T20:08:30.877Z,24.95
2024-03-12T20:11:02.189Z,25.35
2024-03-12T20:13:37.136Z,24.35
2024-03-12T20:16:12.576Z,25.90
2024-03-12T20:18:46.404Z,25.25
2024-03-12T20:21:18.294Z,27.20
2024-03-12T20:23:49.367Z,28.98
2024-03-12T20:26:21.368Z,26.42
2024-03-12T20:28:52.863Z,26.17
2024-03-12T20:31:24.769Z,26.15
2024-03-12T20:33:59.044Z,26.48
2024-03-12T20:36:30.339Z,26.25
2024-03-12T20:39:02.018Z,25.98
2024-03-12T20:41:33.453Z,29.45
2024-03-12T20:44:04.657Z,26.65
2024-03-12T20:49:11.690Z,31.52
2024-03-12T20:51:43.661Z,30.52
2024-03-12T20:54:15.153Z,27.63
2024-03-12T20:56:48.163Z,32.10
2024-03-12T20:59:19.522Z,28.17
2024-03-12T21:01:51.331Z,28.27
2024-03-12T21:04:26.402Z,28.35
2024-03-12T21:06:58.752Z,31.25
2024-03-12T21:09:29.916Z,31.20
2024-03-12T21:12:02.852Z,32.33
2024-03-12T21:14:34.385Z,30.23
2024-03-12T21:17:07.758Z,29.35
2024-03-12T21:19:41.449Z,29.05
2024-03-12T21:22:12.527Z,31.30
2024-03-12T21:24:45.228Z,30.60
2024-03-12T21:27:18.107Z,29.17
2024-03-12T21:29:49.501Z,30.83
2024-03-12T21:32:20.898Z,30.35
2024-03-12T21:34:55.339Z,28.80
2024-03-12T21:37:26.995Z,31.02
2024-03-12T21:39:58.122Z,27.17
2024-03-12T21:42:29.569Z,30.88
2024-03-12T21:45:01.413Z,30.52
2024-03-12T21:47:32.439Z,30.02
2024-03-12T21:50:06.196Z,30.35
2024-03-12T21:52:37.221Z,32.08
2024-03-12T21:55:12.410Z,28.33
2024-03-12T21:57:45.488Z,29.42
2024-03-12T22:00:25.829Z,29.52
2024-03-12T22:02:59.968Z,29.63
2024-03-12T22:05:36.306Z,28.35
2024-03-12T22:08:10.769Z,30.77
2024-03-12T22:10:43.362Z,31.02
2024-03-12T22:13:24.273Z,28.15
2024-03-12T22:16:07.310Z,28.58
2024-03-12T22:18:40.707Z,28.75
2024-03-12T22:21:17.372Z,30.50
2024-03-12T22:23:50.896Z,28.38
2024-03-12T22:26:24.531Z,29.42
2024-03-12T22:28:56.544Z,29.30
2024-03-12T22:31:29.080Z,29.30
2024-03-12T22:34:02.242Z,29.52
2024-03-12T22:39:15.003Z,27.73
2024-03-12T22:41:49.417Z,26.27
2024-03-12T22:44:23.303Z,25.23
2024-03-12T22:46:57.139Z,25.73
2024-03-12T22:49:30.448Z,23.73
2024-03-12T22:52:09.863Z,25.17
2024-03-12T22:54:44.456Z,23.00
2024-03-12T22:57:18.247Z,25.50
2024-03-12T22:59:53.425Z,24.38
2024-03-12T23:02:30.404Z,23.05
2024-03-12T23:05:05.150Z,24.05
2024-03-12T23:07:41.678Z,24.20
2024-03-12T23:10:14.755Z,23.60
2024-03-12T23:12:47.750Z,24.73
2024-03-12T23:15:22.109Z,22.00
2024-03-12T23:17:55.119Z,22.15
2024-03-12T23:20:28.645Z,22.38
2024-03-12T23:23:04.281Z,22.92
2024-03-12T23:25:38.097Z,21.60
2024-03-12T23:28:12.798Z,22.00
2024-03-12T23:30:47.109Z,22.00
2024-03-12T23:33:20.356Z,22.83
2024-03-12T23:35:53.649Z,24.40
2024-03-12T23:38:29.597Z,20.90
2024-03-12T23:41:02.249Z,20.67
2024-03-12T23:43:35.730Z,21.90
2024-03-12T23:46:09.014Z,22.23
2024-03-12T23:48:42.797Z,21.20
2024-03-12T23:51:16.189Z,24.17
2024-03-12T23:53:52.680Z,20.98
2024-03-12T23:56:28.137Z,20.42
2024-03-12T23:59:01.612Z,18.83
